createdAt,value
2018-07-05T00:03:29.240Z,21.90
2018-07-05T00:06:08.376Z,22.20
2018-07-05T00:08:47.340Z,22.40
2018-07-05T00:11:26.240Z,22.20
2018-07-05T00:14:05.535Z,22.10
2018-07-05T00:16:45.032Z,21.80
2018-07-05T00:19:24.033Z,21.80
2018-07-05T00:22:02.847Z,21.80
2018-07-05T00:24:43.018Z,21.70
2018-07-05T00:27:22.004Z,19.80
2018-07-05T00:32:34.080Z,21.80
2018-07-05T00:35:12.779Z,21.70
2018-07-05T00:37:51.860Z,21.80
2018-07-05T00:40:30.802Z,21.50
2018-07-05T00:43:09.658Z,21.20
2018-07-05T00:45:48.629Z,21.20
2018-07-05T00:48:27.533Z,21.10
2018-07-05T00:51:06.560Z,21.00
2018-07-05T00:53:45.470Z,20.90
2018-07-05T00:56:24.531Z,20.90
2018-07-05T00:59:03.488Z,21.00
2018-07-05T01:01:42.357Z,21.10
2018-07-05T01:04:21.243Z,20.90
2018-07-05T01:07:00.099Z,20.60
2018-07-05T01:09:39.029Z,20.80
2018-07-05T01:12:18.100Z,21.20
2018-07-05T01:14:57.971Z,21.00
2018-07-05T01:17:36.940Z,20.90
2018-07-05T01:20:15.886Z,20.90
2018-07-05T01:22:54.872Z,21.10
2018-07-05T01:25:33.818Z,21.20
2018-07-05T01:28:12.588Z,21.20
2018-07-05T01:30:51.660Z,21.40
2018-07-05T01:33:30.565Z,21.50
2018-07-05T01:36:09.514Z,21.40
2018-07-05T01:41:21.549Z,21.00
2018-07-05T01:44:00.453Z,21.10
2018-07-05T01:46:39.493Z,21.10
2018-07-05T01:49:18.244Z,21.00
2018-07-05T01:51:57.040Z,21.00
2018-07-05T01:54:36.136Z,20.90
2018-07-05T01:57:15.048Z,20.90
2018-07-05T01:59:54.007Z,20.90
2018-07-05T02:02:32.841Z,20.90
2018-07-05T02:05:11.799Z,20.90
2018-07-05T02:07:50.697Z,20.50
2018-07-05T02:10:29.576Z,20.40
2018-07-05T02:13:08.379Z,20.40
2018-07-05T02:15:47.208Z,20.30
2018-07-05T02:18:26.148Z,20.30
2018-07-05T02:21:05.113Z,20.70
2018-07-05T02:23:44.081Z,20.70
2018-07-05T02:26:23.075Z,20.50
2018-07-05T02:29:01.967Z,20.40
2018-07-05T02:31:41.640Z,20.50
2018-07-05T02:34:20.546Z,20.40
2018-07-05T02:36:59.548Z,20.40
2018-07-05T02:39:44.297Z,20.30
2018-07-05T02:42:23.131Z,20.40
2018-07-05T02:45:02.077Z,20.50
2018-07-05T02:47:41.174Z,20.70
2018-07-05T02:50:20.126Z,20.70
2018-07-05T02:52:59.085Z,20.70
2018-07-05T02:55:37.990Z,20.60
2018-07-05T02:58:16.889Z,20.70
2018-07-05T03:00:55.890Z,20.80
2018-07-05T03:03:34.996Z,20.90
2018-07-05T03:06:13.997Z,21.10
2018-07-05T03:08:52.916Z,20.90
2018-07-05T03:11:31.792Z,20.50
2018-07-05T03:14:10.869Z,20.50
2018-07-05T03:16:49.652Z,20.10
2018-07-05T03:19:28.424Z,20.00
2018-07-05T03:22:07.160Z,20.20
2018-07-05T03:24:46.239Z,20.30
2018-07-05T03:27:25.219Z,20.20
2018-07-05T03:30:04.308Z,20.10
2018-07-05T03:32:43.214Z,20.10
2018-07-05T03:35:22.104Z,20.10
2018-07-05T03:38:00.928Z,20.10
2018-07-05T03:40:39.916Z,20.00
2018-07-05T03:45:52.401Z,20.20
2018-07-05T03:53:37.302Z,20.50
2018-07-05T03:56:16.380Z,20.50
2018-07-05T03:58:55.220Z,20.40
2018-07-05T04:01:34.952Z,20.30
2018-07-05T04:04:13.644Z,20.40
2018-07-05T04:06:52.519Z,20.50
2018-07-05T04:09:31.435Z,20.70
2018-07-05T04:12:10.392Z,20.60
2018-07-05T04:14:49.296Z,20.60
2018-07-05T04:17:28.129Z,20.50
2018-07-05T04:20:07.172Z,20.50
2018-07-05T04:22:46.161Z,20.60
2018-07-05T04:25:25.311Z,20.60
2018-07-05T04:28:04.287Z,20.70
2018-07-05T04:30:43.265Z,20.70
2018-07-05T04:33:22.291Z,20.80
2018-07-05T04:36:01.401Z,20.90
2018-07-05T04:38:40.433Z,20.90
2018-07-05T04:41:19.370Z,20.90
2018-07-05T04:43:58.319Z,20.80
2018-07-05T04:46:37.241Z,20.80
2018-07-05T04:49:16.153Z,20.70
2018-07-05T04:51:55.051Z,20.90
2018-07-05T04:54:33.947Z,20.90
2018-07-05T04:57:13.053Z,21.00
2018-07-05T04:59:51.989Z,21.10
2018-07-05T05:05:04.083Z,21.00
2018-07-05T05:07:42.572Z,21.20
2018-07-05T05:10:21.425Z,21.30
2018-07-05T05:13:00.434Z,21.30
2018-07-05T05:15:39.501Z,21.40
2018-07-05T05:18:18.645Z,21.40
2018-07-05T05:20:57.709Z,21.40
2018-07-05T05:23:36.668Z,21.40
2018-07-05T05:26:15.660Z,21.40
2018-07-05T05:28:54.623Z,21.40
2018-07-05T05:31:33.597Z,21.50
2018-07-05T05:34:12.487Z,21.60
2018-07-05T05:36:51.532Z,21.80
2018-07-05T05:39:30.451Z,21.90
2018-07-05T05:42:09.449Z,22.00
2018-07-05T05:44:48.410Z,22.10
2018-07-05T05:47:27.379Z,22.30
2018-07-05T05:50:06.341Z,22.40
2018-07-05T05:52:45.163Z,22.40
2018-07-05T05:55:24.139Z,22.20
2018-07-05T05:58:03.842Z,22.10
2018-07-05T06:00:42.744Z,22.10
2018-07-05T06:03:21.813Z,22.10
2018-07-05T06:06:00.816Z,22.00
2018-07-05T06:08:40.995Z,22.80
2018-07-05T06:21:05.149Z,23.00
2018-07-05T06:23:44.025Z,23.40
2018-07-05T06:28:57.325Z,23.60
2018-07-05T06:31:36.065Z,23.80
2018-07-05T06:34:15.175Z,24.00
2018-07-05T06:36:54.151Z,23.70
2018-07-05T06:39:33.248Z,23.70
2018-07-05T06:42:12.268Z,23.40
2018-07-05T06:49:59.162Z,24.40
2018-07-05T07:02:23.788Z,24.10
2018-07-05T07:07:36.848Z,23.90
2018-07-05T07:10:15.690Z,23.90
2018-07-05T07:12:54.953Z,24.00
2018-07-05T07:15:33.976Z,24.40
2018-07-05T07:18:13.873Z,24.50
2018-07-05T07:20:52.685Z,24.40
2018-07-05T07:23:31.452Z,24.20
2018-07-05T07:26:10.552Z,24.20
2018-07-05T07:28:49.337Z,24.50
2018-07-05T07:31:28.417Z,24.90
2018-07-05T07:34:07.290Z,25.20
2018-07-05T07:36:46.174Z,25.20
2018-07-05T07:39:25.597Z,24.90
2018-07-05T07:41:52.019Z,24.70
2018-07-05T07:44:19.970Z,24.50
2018-07-05T07:46:47.522Z,24.50
2018-07-05T07:49:14.370Z,24.50
2018-07-05T07:51:40.809Z,24.50
2018-07-05T07:54:07.259Z,24.60
2018-07-05T07:56:33.723Z,24.50
2018-07-05T07:59:00.202Z,24.50
2018-07-05T08:01:26.634Z,24.40
2018-07-05T08:06:20.090Z,24.30
2018-07-05T08:08:46.759Z,24.40
2018-07-05T08:11:13.213Z,25.10
2018-07-05T08:13:39.620Z,24.30
2018-07-05T08:16:06.062Z,23.90
2018-07-05T08:18:32.465Z,23.70
2018-07-05T08:20:58.909Z,23.80
2018-07-05T08:23:25.342Z,23.80
2018-07-05T08:28:18.648Z,23.90
2018-07-05T08:30:45.960Z,23.80
2018-07-05T08:33:12.390Z,23.70
2018-07-05T08:35:40.994Z,23.70
2018-07-05T08:38:07.390Z,23.90
2018-07-05T08:40:33.826Z,23.80
2018-07-05T08:43:03.265Z,23.80
2018-07-05T08:45:30.445Z,23.80
2018-07-05T08:47:56.853Z,23.90
2018-07-05T08:50:23.943Z,23.90
2018-07-05T08:52:50.367Z,24.20
2018-07-05T08:55:16.772Z,24.20
2018-07-05T08:57:43.212Z,24.20
2018-07-05T09:00:09.631Z,24.20
2018-07-05T09:02:36.131Z,24.30
2018-07-05T09:05:02.544Z,24.30
2018-07-05T09:07:29.004Z,24.30
2018-07-05T09:09:55.430Z,24.20
2018-07-05T09:12:22.089Z,24.00
2018-07-05T09:14:48.520Z,24.10
2018-07-05T09:17:14.997Z,24.10
2018-07-05T09:29:26.461Z,24.20
2018-07-05T09:31:53.021Z,24.20
2018-07-05T09:34:19.504Z,24.30
2018-07-05T09:36:45.952Z,24.30
2018-07-05T09:39:12.585Z,24.30
2018-07-05T09:41:39.046Z,24.20
2018-07-05T09:44:05.878Z,24.20
2018-07-05T09:46:32.341Z,24.20
2018-07-05T09:51:25.732Z,24.50
2018-07-05T09:53:52.201Z,24.80
2018-07-05T09:56:18.654Z,24.90
2018-07-05T09:58:45.104Z,24.90
2018-07-05T10:01:11.558Z,25.00
2018-07-05T10:03:38.175Z,25.40
2018-07-05T10:06:05.694Z,25.40
2018-07-05T10:08:32.423Z,26.00
2018-07-05T10:10:59.593Z,26.40
2018-07-05T10:13:26.205Z,26.60
2018-07-05T10:15:52.762Z,26.70
2018-07-05T10:18:19.260Z,26.90
2018-07-05T10:20:45.656Z,26.80
2018-07-05T10:25:39.007Z,26.70
2018-07-05T10:28:05.979Z,26.70
2018-07-05T10:30:44.877Z,26.70
2018-07-05T10:33:23.955Z,26.80
2018-07-05T10:35:50.418Z,26.70
2018-07-05T10:38:16.837Z,26.80
2018-07-05T10:40:56.865Z,26.90
2018-07-05T10:43:35.912Z,27.00
2018-07-05T10:48:48.088Z,26.80
2018-07-05T10:51:27.037Z,26.90
2018-07-05T10:54:05.892Z,26.60
2018-07-05T10:56:45.165Z,26.50
2018-07-05T10:59:24.034Z,26.30
2018-07-05T11:02:03.058Z,26.30
2018-07-05T11:04:42.953Z,26.20
2018-07-05T11:07:22.024Z,26.20
2018-07-05T11:10:01.395Z,26.20
2018-07-05T11:12:40.921Z,26.20
2018-07-05T11:15:19.943Z,26.10
2018-07-05T11:17:59.111Z,26.00
2018-07-05T11:20:37.944Z,26.20
2018-07-05T11:23:16.825Z,26.30
2018-07-05T11:25:55.929Z,26.30
2018-07-05T11:28:35.744Z,26.50
2018-07-05T11:31:14.638Z,26.70
2018-07-05T11:33:53.604Z,26.90
2018-07-05T11:36:32.708Z,27.00
2018-07-05T11:39:11.758Z,27.30
2018-07-05T11:41:51.298Z,27.40
2018-07-05T11:44:30.299Z,27.10
2018-07-05T11:47:09.394Z,27.20
2018-07-05T11:49:48.357Z,27.30
2018-07-05T11:55:00.512Z,27.40
2018-07-05T12:07:24.489Z,27.40
2018-07-05T12:10:03.441Z,26.90
2018-07-05T12:12:42.276Z,26.70
2018-07-05T12:15:21.630Z,26.90
2018-07-05T12:18:00.570Z,27.20
2018-07-05T12:20:39.754Z,27.40
2018-07-05T12:23:18.962Z,28.30
2018-07-05T12:25:58.109Z,27.50
2018-07-05T12:28:36.996Z,27.60
2018-07-05T12:31:16.110Z,27.70
2018-07-05T12:33:54.996Z,28.20
2018-07-05T12:36:34.042Z,28.30
2018-07-05T12:48:58.344Z,28.40
2018-07-05T12:51:38.037Z,28.50
2018-07-05T12:54:16.847Z,28.70
2018-07-05T12:56:55.825Z,29.30
2018-07-05T12:59:34.784Z,29.30
2018-07-05T13:02:13.898Z,29.10
2018-07-05T13:04:53.176Z,28.90
2018-07-05T13:07:32.162Z,28.30
2018-07-05T13:10:11.436Z,28.30
2018-07-05T13:12:50.361Z,28.20
2018-07-05T13:15:29.350Z,28.00
2018-07-05T13:18:09.369Z,28.00
2018-07-05T13:20:48.484Z,28.00
2018-07-05T13:23:27.560Z,27.90
2018-07-05T13:26:06.673Z,27.70
2018-07-05T13:28:45.744Z,27.60
2018-07-05T13:31:24.528Z,27.40
2018-07-05T13:34:03.484Z,27.40
2018-07-05T13:36:42.379Z,27.20
2018-07-05T13:39:21.331Z,27.20
2018-07-05T13:42:00.645Z,27.20
2018-07-05T13:44:39.617Z,27.30
2018-07-05T13:47:18.600Z,27.30
2018-07-05T13:49:58.542Z,27.30
2018-07-05T13:52:37.546Z,27.30
2018-07-05T13:55:17.216Z,27.30
2018-07-05T13:57:56.059Z,27.10
2018-07-05T14:00:35.191Z,27.00
2018-07-05T14:03:14.313Z,26.80
2018-07-05T14:05:53.190Z,26.60
2018-07-05T14:08:32.342Z,26.50
2018-07-05T14:11:11.350Z,26.40
2018-07-05T14:13:50.351Z,26.20
2018-07-05T14:16:29.289Z,26.20
2018-07-05T14:19:08.246Z,26.20
2018-07-05T14:21:47.293Z,26.10
2018-07-05T14:24:26.907Z,26.10
2018-07-05T14:27:06.160Z,26.10
2018-07-05T14:29:45.217Z,26.10
2018-07-05T14:32:24.254Z,26.10
2018-07-05T14:35:03.376Z,26.10
2018-07-05T14:37:42.503Z,26.20
2018-07-05T14:40:22.004Z,26.20
2018-07-05T14:43:01.108Z,26.10
2018-07-05T14:45:40.133Z,26.10
2018-07-05T14:48:19.160Z,26.30
2018-07-05T14:50:58.142Z,26.30
2018-07-05T14:53:37.253Z,26.30
2018-07-05T14:56:16.258Z,26.30
2018-07-05T14:58:55.338Z,26.30
2018-07-05T15:01:34.469Z,26.50
2018-07-05T15:04:13.535Z,26.50
2018-07-05T15:06:52.436Z,26.50
2018-07-05T15:09:31.416Z,26.50
2018-07-05T15:12:10.371Z,26.50
2018-07-05T15:14:49.388Z,26.40
2018-07-05T15:17:28.525Z,26.50
2018-07-05T15:20:07.673Z,26.50
2018-07-05T15:22:46.731Z,26.50
2018-07-05T15:25:25.851Z,26.60
2018-07-05T15:28:04.836Z,26.50
2018-07-05T15:30:43.913Z,26.50
2018-07-05T15:33:22.883Z,26.60
2018-07-05T15:36:01.738Z,26.50
2018-07-05T15:38:40.681Z,26.70
2018-07-05T15:41:19.606Z,26.50
2018-07-05T15:43:58.607Z,26.50
2018-07-05T15:46:37.625Z,26.80
2018-07-05T15:49:17.315Z,26.40
2018-07-05T15:54:30.177Z,26.40
2018-07-05T15:57:09.271Z,26.40
2018-07-05T15:59:48.221Z,26.40
2018-07-05T16:02:27.128Z,26.40
2018-07-05T16:05:06.010Z,26.40
2018-07-05T16:07:44.718Z,26.40
2018-07-05T16:10:23.796Z,26.30
2018-07-05T16:13:02.690Z,26.20
2018-07-05T16:15:41.618Z,26.20
2018-07-05T16:18:20.714Z,26.20
2018-07-05T16:20:59.644Z,26.20
2018-07-05T16:23:38.538Z,26.20
2018-07-05T16:26:17.491Z,26.20
2018-07-05T16:28:57.152Z,26.20
2018-07-05T16:31:36.177Z,26.20
2018-07-05T16:34:15.216Z,26.20
2018-07-05T16:36:54.040Z,26.30
2018-07-05T16:39:33.086Z,26.20
2018-07-05T16:42:12.394Z,26.10
2018-07-05T16:44:51.320Z,26.10
2018-07-05T16:47:30.165Z,26.00
2018-07-05T16:50:09.132Z,26.00
2018-07-05T16:52:48.080Z,26.10
2018-07-05T16:55:27.112Z,26.00
2018-07-05T16:58:05.991Z,26.00
2018-07-05T17:00:45.030Z,25.80
2018-07-05T17:03:24.761Z,25.90
2018-07-05T17:06:03.724Z,25.80
2018-07-05T17:08:42.686Z,25.70
2018-07-05T17:11:22.281Z,25.70
2018-07-05T17:14:01.344Z,25.70
2018-07-05T17:19:13.394Z,25.60
2018-07-05T17:21:52.421Z,25.60
2018-07-05T17:24:31.205Z,25.60
2018-07-05T17:29:44.160Z,25.50
2018-07-05T17:32:23.092Z,25.50
2018-07-05T17:35:02.128Z,25.50
2018-07-05T17:37:41.181Z,25.50
2018-07-05T17:40:20.117Z,25.40
2018-07-05T17:42:59.164Z,25.40
2018-07-05T17:45:38.123Z,25.50
2018-07-05T17:48:17.169Z,25.40
2018-07-05T17:50:56.092Z,25.40
2018-07-05T17:53:35.901Z,25.30
2018-07-05T17:56:14.784Z,25.40
2018-07-05T17:58:54.620Z,25.30
2018-07-05T18:01:33.601Z,25.30
2018-07-05T18:04:13.739Z,25.30
2018-07-05T18:06:52.822Z,25.20
2018-07-05T18:09:31.875Z,25.20
2018-07-05T18:12:10.741Z,25.20
2018-07-05T18:14:49.739Z,25.20
2018-07-05T18:17:28.683Z,25.10
2018-07-05T18:20:07.777Z,25.10
2018-07-05T18:22:46.799Z,24.90
2018-07-05T18:25:25.750Z,24.90
2018-07-05T18:28:04.961Z,24.80
2018-07-05T18:30:43.881Z,24.80
2018-07-05T18:33:22.779Z,24.80
2018-07-05T18:36:01.899Z,24.80
2018-07-05T18:38:40.920Z,24.80
2018-07-05T18:41:19.882Z,24.80
2018-07-05T18:43:58.852Z,24.80
2018-07-05T18:46:37.797Z,24.80
2018-07-05T18:49:17.701Z,24.80
2018-07-05T18:51:57.803Z,24.80
2018-07-05T18:54:37.938Z,24.70
2018-07-05T18:57:18.004Z,24.60
2018-07-05T18:59:56.998Z,24.60
2018-07-05T19:02:36.298Z,24.50
2018-07-05T19:05:15.766Z,24.50
2018-07-05T19:07:55.606Z,24.40
2018-07-05T19:10:35.869Z,24.30
2018-07-05T19:13:14.896Z,24.30
2018-07-05T19:15:54.597Z,24.20
2018-07-05T19:21:09.581Z,24.10
2018-07-05T19:23:48.429Z,24.10
2018-07-05T19:26:28.064Z,24.00
2018-07-05T19:29:07.313Z,24.00
2018-07-05T19:31:46.188Z,23.90
2018-07-05T19:34:25.246Z,23.90
2018-07-05T19:37:04.264Z,23.90
2018-07-05T19:39:43.356Z,24.40
2018-07-05T19:42:22.501Z,23.90
2018-07-05T19:45:01.234Z,23.90
2018-07-05T19:47:40.295Z,23.80
2018-07-05T19:50:19.560Z,23.90
2018-07-05T19:52:58.611Z,23.80
2018-07-05T19:55:38.041Z,23.80
2018-07-05T19:58:17.052Z,23.80
2018-07-05T20:00:56.272Z,23.80
2018-07-05T20:03:36.162Z,23.70
2018-07-05T20:06:15.499Z,23.70
2018-07-05T20:08:54.710Z,23.70
2018-07-05T20:11:33.767Z,23.70
2018-07-05T20:14:13.014Z,23.70
2018-07-05T20:16:51.890Z,23.70
2018-07-05T20:19:30.874Z,23.60
2018-07-05T20:22:15.732Z,23.70
2018-07-05T20:24:54.743Z,23.60
2018-07-05T20:27:33.530Z,24.50
2018-07-05T20:30:13.140Z,23.50
2018-07-05T20:32:52.846Z,23.70
2018-07-05T20:35:31.881Z,23.40
2018-07-05T20:38:10.803Z,23.40
2018-07-05T20:40:49.840Z,23.40
2018-07-05T20:43:29.058Z,23.40
2018-07-05T20:46:08.117Z,23.30
2018-07-05T20:48:46.995Z,23.30
2018-07-05T20:51:26.721Z,23.30
2018-07-05T20:54:05.730Z,23.20
2018-07-05T20:56:44.670Z,23.30
2018-07-05T20:59:23.776Z,23.20
2018-07-05T21:02:03.802Z,23.60
2018-07-05T21:04:43.525Z,23.40
2018-07-05T21:07:22.549Z,23.70
2018-07-05T21:10:01.542Z,23.10
2018-07-05T21:12:40.560Z,23.10
2018-07-05T21:15:19.539Z,23.20
2018-07-05T21:17:58.512Z,23.30
2018-07-05T21:20:38.115Z,23.30
2018-07-05T21:23:17.356Z,23.20
2018-07-05T21:25:57.278Z,23.20
2018-07-05T21:28:36.304Z,23.10
2018-07-05T21:31:15.515Z,23.00
2018-07-05T21:33:54.521Z,23.00
2018-07-05T21:36:33.677Z,23.00
2018-07-05T21:39:12.643Z,23.00
2018-07-05T21:41:51.771Z,23.00
2018-07-05T21:47:03.886Z,22.90
2018-07-05T21:49:43.002Z,22.90
2018-07-05T21:52:22.017Z,22.90
2018-07-05T21:55:01.076Z,22.90
2018-07-05T21:57:39.999Z,22.90
2018-07-05T22:00:19.130Z,22.80
2018-07-05T22:02:58.139Z,22.90
2018-07-05T22:05:37.583Z,22.90
2018-07-05T22:08:16.444Z,22.90
2018-07-05T22:10:56.633Z,23.00
2018-07-05T22:13:35.634Z,22.90
2018-07-05T22:18:53.794Z,22.80
2018-07-05T22:21:37.808Z,22.90
2018-07-05T22:24:23.488Z,22.80
2018-07-05T22:27:03.815Z,22.80
2018-07-05T22:29:49.582Z,22.70
2018-07-05T22:32:29.322Z,22.80
2018-07-05T22:35:09.918Z,22.70
2018-07-05T22:37:49.083Z,22.70
2018-07-05T22:40:28.446Z,21.10
2018-07-05T22:43:07.728Z,22.70
2018-07-05T22:45:46.990Z,22.80
2018-07-05T22:48:25.868Z,22.80
2018-07-05T22:51:05.192Z,22.80
2018-07-05T22:56:17.342Z,22.80
2018-07-05T22:58:56.386Z,22.70
2018-07-05T23:01:35.279Z,22.70
2018-07-05T23:04:14.307Z,22.80
2018-07-05T23:06:54.354Z,22.80
2018-07-05T23:09:33.116Z,22.70
2018-07-05T23:12:12.137Z,22.60
2018-07-05T23:14:51.869Z,22.70
2018-07-05T23:17:30.868Z,22.70
2018-07-05T23:20:11.439Z,22.70
2018-07-05T23:22:50.497Z,22.70
2018-07-05T23:25:29.359Z,22.70
2018-07-05T23:28:08.287Z,22.70
2018-07-05T23:30:47.386Z,22.80
2018-07-05T23:33:26.835Z,22.80
2018-07-05T23:36:05.988Z,22.70
2018-07-05T23:38:44.901Z,22.80
2018-07-05T23:41:23.959Z,22.80
2018-07-05T23:44:03.016Z,22.70
2018-07-05T23:46:42.884Z,22.70
2018-07-05T23:59:11.900Z,22.70
